Time;durP1;ratioP1;P1;durP2;ratioP2;P2;SDS_P1;SDS_P2;PMS_P1;PMS_P2;Temp;Humidity;BMP_temperature;BMP_pressure;BME280_temperature;BME280_humidity;BME280_pressure;Samples;Min_cycle;Max_cycle;Signal;HPM_P1;HPM_P2
2022/05/19 00:01:30;;;;;;;5.90;1.80;;;;;;;;;;5051268;28;20081;-45
2022/05/19 00:03:56;;;;;;;4.03;1.67;;;;;;;;;;5058507;28;20030;-46
2022/05/19 00:06:22;;;;;;;3.05;1.70;;;;;;;;;;5075567;28;20392;-45
2022/05/19 00:08:48;;;;;;;4.47;1.80;;;;;;;;;;5075539;28;20353;-45
2022/05/19 00:11:18;;;;;;;10.82;2.42;;;;;;;;;;5075293;28;20114;-45
2022/05/19 00:13:44;;;;;;;3.22;1.83;;;;;;;;;;5075439;28;20024;-45
2022/05/19 00:16:11;;;;;;;3.33;2.13;;;;;;;;;;5075229;28;20048;-42
2022/05/19 00:18:37;;;;;;;5.75;1.80;;;;;;;;;;5075230;28;20543;-45
2022/05/19 00:21:04;;;;;;;5.45;1.80;;;;;;;;;;5075283;28;20449;-46
2022/05/19 00:23:30;;;;;;;2.10;1.40;;;;;;;;;;5075415;28;20075;-46
2022/05/19 00:25:56;;;;;;;5.05;2.10;;;;;;;;;;5075252;28;20048;-46
2022/05/19 00:28:24;;;;;;;4.93;1.40;;;;;;;;;;5075029;28;20063;-46
2022/05/19 00:30:51;;;;;;;4.55;1.60;;;;;;;;;;5075114;28;20024;-46
2022/05/19 00:33:17;;;;;;;11.32;1.90;;;;;;;;;;5072720;28;20071;-46
2022/05/19 00:35:43;;;;;;;2.78;1.65;;;;;;;;;;5054788;28;20473;-46
2022/05/19 00:38:09;;;;;;;2.88;1.65;;;;;;;;;;5054939;28;20025;-45
2022/05/19 00:40:36;;;;;;;5.55;1.85;;;;;;;;;;5054873;28;20017;-46
2022/05/19 00:43:04;;;;;;;3.20;1.50;;;;;;;;;;5054571;28;20021;-45
2022/05/19 00:45:57;;;;;;;5.15;1.67;;;;;;;;;;5054776;28;20166;-46
2022/05/19 00:48:24;;;;;;;2.35;1.60;;;;;;;;;;5050410;28;20435;-45
2022/05/19 00:50:50;;;;;;;5.20;1.33;;;;;;;;;;5054644;28;20029;-45
2022/05/19 00:53:27;;;;;;;3.17;1.25;;;;;;;;;;5054702;28;20021;-45
2022/05/19 00:55:54;;;;;;;5.57;1.80;;;;;;;;;;5054749;28;20017;-45
2022/05/19 00:58:27;;;;;;;4.15;1.95;;;;;;;;;;5054514;28;20024;-46
2022/05/19 01:00:54;;;;;;;6.07;1.33;;;;;;;;;;5054134;28;20118;-45
2022/05/19 01:03:21;;;;;;;3.70;1.48;;;;;;;;;;5054441;28;20075;-46
2022/05/19 01:05:58;;;;;;;3.72;1.40;;;;;;;;;;5054182;28;20477;-45
2022/05/19 01:08:28;;;;;;;6.18;4.22;;;;;;;;;;5054283;28;20420;-45
2022/05/19 01:10:57;;;;;;;14.50;11.80;;;;;;;;;;5053941;28;20052;-45
2022/05/19 01:13:25;;;;;;;13.80;11.88;;;;;;;;;;5053459;28;20029;-46
2022/05/19 01:15:53;;;;;;;14.20;9.82;;;;;;;;;;5053903;28;20465;-45
2022/05/19 01:18:19;;;;;;;10.45;9.15;;;;;;;;;;5053994;28;20126;-45
2022/05/19 01:20:49;;;;;;;7.85;6.50;;;;;;;;;;5054074;28;20025;-46
2022/05/19 01:23:15;;;;;;;6.55;4.97;;;;;;;;;;5054283;28;20132;-44
2022/05/19 01:25:41;;;;;;;4.72;3.53;;;;;;;;;;5054044;28;20087;-45
2022/05/19 01:28:10;;;;;;;2.17;1.98;;;;;;;;;;5053935;28;20032;-45
2022/05/19 01:30:46;;;;;;;3.75;2.00;;;;;;;;;;5053977;28;20032;-45
2022/05/19 01:33:14;;;;;;;6.93;1.88;;;;;;;;;;5053961;28;20021;-45
2022/05/19 01:35:40;;;;;;;3.83;1.80;;;;;;;;;;5053861;28;20017;-45
2022/05/19 01:38:09;;;;;;;5.28;2.10;;;;;;;;;;5054012;28;20051;-45
2022/05/19 01:40:38;;;;;;;6.75;2.35;;;;;;;;;;5053741;28;20036;-45
2022/05/19 01:43:20;;;;;;;3.70;1.20;;;;;;;;;;5054083;28;20029;-45
2022/05/19 01:46:01;;;;;;;4.63;1.52;;;;;;;;;;5053623;28;20086;-45
2022/05/19 01:48:53;;;;;;;5.45;1.35;;;;;;;;;;5053898;28;20075;-45
2022/05/19 01:51:36;;;;;;;2.50;1.42;;;;;;;;;;5049123;28;20067;-45
2022/05/19 01:54:02;;;;;;;2.67;1.65;;;;;;;;;;5053680;28;20041;-45
2022/05/19 01:56:34;;;;;;;4.70;1.38;;;;;;;;;;5053542;28;20051;-45
2022/05/19 01:59:10;;;;;;;5.45;1.50;;;;;;;;;;5053396;28;20028;-46
2022/05/19 02:01:36;;;;;;;3.22;1.60;;;;;;;;;;5053563;28;20031;-45
2022/05/19 02:04:06;;;;;;;3.10;1.30;;;;;;;;;;5053509;28;20099;-44
2022/05/19 02:06:36;;;;;;;5.95;2.22;;;;;;;;;;5053139;28;20033;-45
2022/05/19 02:09:16;;;;;;;4.35;1.92;;;;;;;;;;5053470;28;20104;-45
2022/05/19 02:11:43;;;;;;;4.18;2.10;;;;;;;;;;5053104;28;20051;-45
2022/05/19 02:14:12;;;;;;;3.58;2.33;;;;;;;;;;5053280;28;20113;-45
2022/05/19 02:16:38;;;;;;;2.88;2.13;;;;;;;;;;5053233;28;20133;-45
2022/05/19 02:19:05;;;;;;;3.47;1.52;;;;;;;;;;5053253;28;20380;-46
2022/05/19 02:21:31;;;;;;;7.13;1.70;;;;;;;;;;5035167;28;20515;-45
2022/05/19 02:24:01;;;;;;;3.65;1.75;;;;;;;;;;5053380;28;20078;-45
2022/05/19 02:26:34;;;;;;;4.10;1.70;;;;;;;;;;5058480;28;20060;-45
2022/05/19 02:29:08;;;;;;;4.18;1.60;;;;;;;;;;5059807;28;20519;-45
2022/05/19 02:31:37;;;;;;;2.42;1.65;;;;;;;;;;5059684;28;20480;-45
2022/05/19 02:34:03;;;;;;;2.38;1.30;;;;;;;;;;5059724;28;20029;-45
2022/05/19 02:36:29;;;;;;;4.30;2.00;;;;;;;;;;5060036;28;20108;-45
2022/05/19 02:38:55;;;;;;;2.40;1.45;;;;;;;;;;5059848;28;20025;-45
2022/05/19 02:41:21;;;;;;;9.25;1.90;;;;;;;;;;5059585;28;20060;-45
2022/05/19 02:43:47;;;;;;;8.15;2.15;;;;;;;;;;5059433;28;20028;-45
2022/05/19 02:46:13;;;;;;;2.97;1.63;;;;;;;;;;5059713;28;20036;-45
2022/05/19 02:48:42;;;;;;;4.00;1.65;;;;;;;;;;5059430;28;20358;-45
2022/05/19 02:51:08;;;;;;;3.65;1.80;;;;;;;;;;5059696;28;20025;-45
2022/05/19 02:53:34;;;;;;;6.20;2.05;;;;;;;;;;5059573;28;20091;-45
2022/05/19 02:56:00;;;;;;;2.35;1.38;;;;;;;;;;5059457;28;20144;-45
2022/05/19 02:58:26;;;;;;;3.70;1.88;;;;;;;;;;5059555;28;20021;-45
2022/05/19 03:00:52;;;;;;;2.67;1.48;;;;;;;;;;5059439;28;20547;-45
2022/05/19 03:03:18;;;;;;;6.38;1.73;;;;;;;;;;5059681;28;20017;-45
2022/05/19 03:05:45;;;;;;;7.15;1.80;;;;;;;;;;5059477;28;20125;-45
2022/05/19 03:08:11;;;;;;;3.55;1.60;;;;;;;;;;5059517;28;20048;-45
2022/05/19 03:10:42;;;;;;;7.45;1.70;;;;;;;;;;5059111;28;20045;-45
2022/05/19 03:13:14;;;;;;;4.78;1.98;;;;;;;;;;5059172;28;20096;-44
2022/05/19 03:15:40;;;;;;;4.35;1.65;;;;;;;;;;5059439;28;20025;-45
2022/05/19 03:18:09;;;;;;;4.15;2.20;;;;;;;;;;5059298;28;20025;-45
2022/05/19 03:20:35;;;;;;;5.07;1.88;;;;;;;;;;5059309;28;20029;-44
2022/05/19 03:23:01;;;;;;;5.85;2.00;;;;;;;;;;5059573;28;20500;-44
2022/05/19 03:25:27;;;;;;;4.13;1.75;;;;;;;;;;5059142;28;20051;-44
2022/05/19 03:27:53;;;;;;;8.20;2.30;;;;;;;;;;5059041;28;20082;-45
2022/05/19 03:30:19;;;;;;;12.43;2.20;;;;;;;;;;5059199;28;20108;-45
2022/05/19 03:32:45;;;;;;;5.38;1.95;;;;;;;;;;5059181;28;20476;-45
2022/05/19 03:35:13;;;;;;;9.27;1.90;;;;;;;;;;5059029;28;20477;-44
2022/05/19 03:37:41;;;;;;;6.65;2.75;;;;;;;;;;5055964;28;20078;-44
2022/05/19 03:40:11;;;;;;;12.27;4.55;;;;;;;;;;5056266;28;20033;-44
2022/05/19 03:42:37;;;;;;;15.15;6.85;;;;;;;;;;5055817;28;20036;-45
2022/05/19 03:45:04;;;;;;;18.83;8.63;;;;;;;;;;5056007;28;20029;-45
2022/05/19 03:47:30;;;;;;;22.15;11.48;;;;;;;;;;5055900;28;20037;-45
2022/05/19 03:49:56;;;;;;;22.60;12.68;;;;;;;;;;5055904;28;20017;-44
2022/05/19 03:52:23;;;;;;;20.88;10.63;;;;;;;;;;5055639;28;20116;-44
2022/05/19 03:54:49;;;;;;;9.70;4.82;;;;;;;;;;5055754;28;20021;-44
2022/05/19 03:57:17;;;;;;;8.20;2.80;;;;;;;;;;5055426;28;20180;-45
2022/05/19 03:59:43;;;;;;;6.43;2.88;;;;;;;;;;5055818;28;20036;-45
2022/05/19 04:02:09;;;;;;;6.93;2.92;;;;;;;;;;5055534;28;20082;-45
2022/05/19 04:04:35;;;;;;;4.43;2.20;;;;;;;;;;5055510;28;20030;-45
2022/05/19 04:07:01;;;;;;;10.40;2.67;;;;;;;;;;5055355;28;20029;-45
2022/05/19 04:09:28;;;;;;;14.38;4.90;;;;;;;;;;5055518;28;20025;-45
2022/05/19 04:11:54;;;;;;;15.52;4.65;;;;;;;;;;5055492;28;20073;-45
2022/05/19 04:14:20;;;;;;;14.55;3.88;;;;;;;;;;5055601;28;20079;-45
2022/05/19 04:16:49;;;;;;;7.85;3.17;;;;;;;;;;5055261;28;20107;-45
2022/05/19 04:19:18;;;;;;;8.98;2.97;;;;;;;;;;5055079;28;20053;-45
2022/05/19 04:21:44;;;;;;;7.97;3.05;;;;;;;;;;5055189;28;20070;-44
2022/05/19 04:24:11;;;;;;;8.07;3.10;;;;;;;;;;5037275;28;20389;-44
2022/05/19 04:26:37;;;;;;;7.80;3.60;;;;;;;;;;5055134;28;20029;-44
2022/05/19 04:29:03;;;;;;;11.02;3.53;;;;;;;;;;5055348;28;20433;-44
2022/05/19 04:31:30;;;;;;;8.88;3.50;;;;;;;;;;5055169;28;20025;-45
2022/05/19 04:33:56;;;;;;;11.98;3.00;;;;;;;;;;5055141;28;20048;-44
2022/05/19 04:36:22;;;;;;;10.45;4.63;;;;;;;;;;5055039;28;20021;-45
2022/05/19 04:38:48;;;;;;;13.60;4.75;;;;;;;;;;5055220;28;20032;-44
2022/05/19 04:41:14;;;;;;;26.02;11.73;;;;;;;;;;5055362;28;20467;-44
2022/05/19 04:43:40;;;;;;;16.60;9.30;;;;;;;;;;5055217;28;20369;-44
2022/05/19 04:46:06;;;;;;;17.65;9.23;;;;;;;;;;5054735;28;20065;-44
2022/05/19 04:48:32;;;;;;;12.13;5.40;;;;;;;;;;5054679;28;20024;-44
2022/05/19 04:50:59;;;;;;;12.90;4.72;;;;;;;;;;5054778;28;20524;-43
2022/05/19 04:53:25;;;;;;;7.82;2.92;;;;;;;;;;5054674;28;20481;-42
2022/05/19 04:55:52;;;;;;;9.63;4.78;;;;;;;;;;5054605;28;20013;-43
2022/05/19 04:58:18;;;;;;;5.35;2.97;;;;;;;;;;5054434;28;20167;-43
2022/05/19 05:00:46;;;;;;;5.45;3.10;;;;;;;;;;5054624;28;20048;-43
2022/05/19 05:03:12;;;;;;;9.23;4.30;;;;;;;;;;5054036;28;20031;-43
2022/05/19 05:05:38;;;;;;;27.95;8.32;;;;;;;;;;5054136;28;20059;-43
2022/05/19 05:08:05;;;;;;;23.90;10.30;;;;;;;;;;5053878;28;20044;-43
2022/05/19 05:10:31;;;;;;;13.40;5.13;;;;;;;;;;5053745;28;20041;-43
2022/05/19 05:12:57;;;;;;;12.32;5.43;;;;;;;;;;5053898;28;20035;-43
2022/05/19 05:15:26;;;;;;;9.45;4.22;;;;;;;;;;5054448;28;20481;-43
2022/05/19 05:17:52;;;;;;;12.25;4.55;;;;;;;;;;5054685;28;20059;-43
2022/05/19 05:20:18;;;;;;;13.13;4.90;;;;;;;;;;5054238;28;20056;-43
2022/05/19 05:22:44;;;;;;;6.80;3.80;;;;;;;;;;5054026;28;20032;-43
2022/05/19 05:25:12;;;;;;;8.55;2.97;;;;;;;;;;5054042;28;20025;-43
2022/05/19 05:27:38;;;;;;;7.18;3.45;;;;;;;;;;5053918;28;20401;-43
2022/05/19 05:30:06;;;;;;;12.30;5.20;;;;;;;;;;5054218;28;20025;-43
2022/05/19 05:32:32;;;;;;;19.85;11.60;;;;;;;;;;5053948;28;20094;-43
2022/05/19 05:35:01;;;;;;;18.88;7.18;;;;;;;;;;5054039;28;20032;-43
2022/05/19 05:37:27;;;;;;;13.60;7.90;;;;;;;;;;5053878;28;20385;-43
2022/05/19 05:39:53;;;;;;;12.07;5.20;;;;;;;;;;5053992;28;20413;-43
2022/05/19 05:42:19;;;;;;;10.80;5.03;;;;;;;;;;5053714;28;20048;-44
2022/05/19 05:44:48;;;;;;;11.38;5.70;;;;;;;;;;5053760;28;20036;-44
2022/05/19 05:47:14;;;;;;;8.63;3.83;;;;;;;;;;5053704;28;20041;-44
2022/05/19 05:49:40;;;;;;;7.03;3.50;;;;;;;;;;5053677;28;20071;-43
2022/05/19 05:52:07;;;;;;;8.65;3.22;;;;;;;;;;5053501;28;20120;-43
2022/05/19 05:54:34;;;;;;;10.13;4.30;;;;;;;;;;5036082;28;20472;-43
2022/05/19 05:57:00;;;;;;;10.82;3.92;;;;;;;;;;5053532;28;20504;-43
2022/05/19 05:59:27;;;;;;;7.18;3.05;;;;;;;;;;5053408;28;20025;-44
2022/05/19 06:01:53;;;;;;;5.47;2.70;;;;;;;;;;5053476;28;20028;-43
2022/05/19 06:04:19;;;;;;;7.38;2.55;;;;;;;;;;5053672;28;20017;-44
2022/05/19 06:06:46;;;;;;;4.07;2.00;;;;;;;;;;5053515;28;20037;-44
2022/05/19 06:09:15;;;;;;;7.22;2.15;;;;;;;;;;5053704;28;20013;-44
2022/05/19 06:11:42;;;;;;;5.05;1.55;;;;;;;;;;5053148;28;20041;-44
2022/05/19 06:14:08;;;;;;;5.95;2.20;;;;;;;;;;5053337;28;20496;-44
2022/05/19 06:16:34;;;;;;;7.80;1.52;;;;;;;;;;5053293;28;20036;-44
2022/05/19 06:19:01;;;;;;;4.88;1.33;;;;;;;;;;5053464;28;20035;-44
2022/05/19 06:21:27;;;;;;;6.25;1.83;;;;;;;;;;5053514;28;20106;-44
2022/05/19 06:23:53;;;;;;;8.20;1.75;;;;;;;;;;5053392;28;20033;-44
2022/05/19 06:26:19;;;;;;;4.65;2.33;;;;;;;;;;5053347;28;20032;-44
2022/05/19 06:28:45;;;;;;;7.40;3.35;;;;;;;;;;5053161;28;20109;-44
2022/05/19 06:31:12;;;;;;;4.97;2.00;;;;;;;;;;5053097;28;20032;-44
2022/05/19 06:33:38;;;;;;;8.38;2.17;;;;;;;;;;5053205;28;20066;-44
2022/05/19 06:36:10;;;;;;;7.60;2.28;;;;;;;;;;5053136;28;20029;-44
2022/05/19 06:38:37;;;;;;;4.10;2.15;;;;;;;;;;5053310;28;20033;-44
2022/05/19 06:43:50;;;;;;;5.05;1.77;;;;;;;;;;5053488;28;20099;-44
2022/05/19 06:46:16;;;;;;;5.03;1.25;;;;;;;;;;5053166;28;20518;-44
2022/05/19 06:48:43;;;;;;;7.00;1.60;;;;;;;;;;5053285;28;20017;-44
2022/05/19 06:51:09;;;;;;;5.47;1.40;;;;;;;;;;5053006;28;20350;-44
2022/05/19 06:53:36;;;;;;;4.30;1.95;;;;;;;;;;5053103;28;20025;-44
2022/05/19 06:56:02;;;;;;;8.48;1.70;;;;;;;;;;5052719;28;20025;-44
2022/05/19 06:58:28;;;;;;;4.85;1.52;;;;;;;;;;5052876;28;20068;-44
2022/05/19 07:00:54;;;;;;;4.88;1.33;;;;;;;;;;5052926;28;20025;-43
2022/05/19 07:03:20;;;;;;;4.35;1.23;;;;;;;;;;5052937;28;20434;-44
2022/05/19 07:05:46;;;;;;;6.40;2.03;;;;;;;;;;5052977;28;20163;-44
2022/05/19 07:08:13;;;;;;;5.88;3.35;;;;;;;;;;5053231;28;20044;-44
2022/05/19 07:10:39;;;;;;;4.93;2.38;;;;;;;;;;5035062;28;20048;-44
2022/05/19 07:13:06;;;;;;;6.47;3.15;;;;;;;;;;5055216;28;20102;-44
2022/05/19 07:15:32;;;;;;;6.55;2.65;;;;;;;;;;5056630;28;20032;-43
2022/05/19 07:17:58;;;;;;;14.82;2.80;;;;;;;;;;5056651;28;20104;-44
2022/05/19 07:23:11;;;;;;;7.03;1.38;;;;;;;;;;5056825;28;20044;-44
2022/05/19 07:25:37;;;;;;;3.47;1.20;;;;;;;;;;5056261;28;20049;-44
2022/05/19 07:28:03;;;;;;;5.55;1.45;;;;;;;;;;5056311;28;20040;-44
2022/05/19 07:30:29;;;;;;;2.70;1.20;;;;;;;;;;5056369;28;20025;-44
2022/05/19 07:32:55;;;;;;;3.25;1.20;;;;;;;;;;5056303;28;20070;-43
2022/05/19 07:35:22;;;;;;;63.65;31.33;;;;;;;;;;5056061;28;20029;-43
2022/05/19 07:37:48;;;;;;;10.98;5.03;;;;;;;;;;5056157;28;20100;-43
2022/05/19 07:40:14;;;;;;;12.30;7.15;;;;;;;;;;5056330;28;20109;-43
2022/05/19 07:42:40;;;;;;;2.45;1.52;;;;;;;;;;5056002;28;20040;-43
2022/05/19 07:45:07;;;;;;;7.35;1.75;;;;;;;;;;5056069;28;20094;-43
2022/05/19 07:47:34;;;;;;;60.35;36.42;;;;;;;;;;5056027;28;20120;-43
2022/05/19 07:50:00;;;;;;;101.32;52.63;;;;;;;;;;5056226;28;20021;-43
2022/05/19 07:52:26;;;;;;;19.15;7.78;;;;;;;;;;5055855;28;20369;-43
2022/05/19 07:54:56;;;;;;;10.68;2.83;;;;;;;;;;5055689;28;20029;-43
2022/05/19 07:57:22;;;;;;;11.98;5.13;;;;;;;;;;5056003;28;20021;-44
2022/05/19 07:59:48;;;;;;;6.28;2.20;;;;;;;;;;5055822;28;20021;-43
2022/05/19 08:02:14;;;;;;;1.73;0.93;;;;;;;;;;5055606;28;20025;-46
2022/05/19 08:04:45;;;;;;;3.85;1.73;;;;;;;;;;5055905;28;20488;-48
2022/05/19 08:07:11;;;;;;;8.52;4.78;;;;;;;;;;5055618;28;20036;-44
2022/05/19 08:17:56;;;;;;;11.98;5.75;;;;;;;;;;5055732;28;20052;-44
2022/05/19 08:20:22;;;;;;;8.43;3.45;;;;;;;;;;5055282;28;20029;-44
2022/05/19 08:22:49;;;;;;;9.50;4.70;;;;;;;;;;5054750;28;20481;-44
2022/05/19 08:25:15;;;;;;;3.55;1.65;;;;;;;;;;5055477;28;20029;-44
2022/05/19 08:27:44;;;;;;;4.03;1.85;;;;;;;;;;5055456;28;20033;-44
2022/05/19 08:30:11;;;;;;;1.83;1.05;;;;;;;;;;5055189;28;20103;-44
2022/05/19 08:32:38;;;;;;;2.88;1.67;;;;;;;;;;5055104;28;20107;-44
2022/05/19 08:35:05;;;;;;;3.42;1.13;;;;;;;;;;5055047;28;20481;-44
2022/05/19 08:37:31;;;;;;;3.45;1.08;;;;;;;;;;5054991;28;20052;-44
2022/05/19 08:39:58;;;;;;;6.75;1.25;;;;;;;;;;5055089;28;20025;-44
2022/05/19 08:42:26;;;;;;;4.47;1.00;;;;;;;;;;5055220;28;20083;-44
2022/05/19 08:44:54;;;;;;;2.30;1.30;;;;;;;;;;5055138;28;20021;-44
2022/05/19 08:47:25;;;;;;;3.20;0.80;;;;;;;;;;5054786;28;20029;-44
2022/05/19 08:50:02;;;;;;;2.05;0.68;;;;;;;;;;5055016;28;20025;-44
2022/05/19 08:52:32;;;;;;;1.88;1.00;;;;;;;;;;5054855;28;20059;-44
2022/05/19 08:55:00;;;;;;;7.70;3.90;;;;;;;;;;5054603;28;20079;-44
2022/05/19 08:57:27;;;;;;;4.40;1.40;;;;;;;;;;5054680;28;20104;-44
2022/05/19 08:59:59;;;;;;;3.90;0.95;;;;;;;;;;5055100;28;20029;-44
2022/05/19 09:02:38;;;;;;;1.80;0.80;;;;;;;;;;5054612;28;20021;-44
2022/05/19 09:05:07;;;;;;;1.60;1.13;;;;;;;;;;5054641;28;20377;-43
2022/05/19 09:07:57;;;;;;;4.30;1.35;;;;;;;;;;5054539;28;20037;-43
2022/05/19 09:10:23;;;;;;;3.97;1.85;;;;;;;;;;5054431;28;20111;-43
2022/05/19 09:12:56;;;;;;;3.97;1.00;;;;;;;;;;5054581;28;20021;-43
2022/05/19 09:15:24;;;;;;;4.55;1.33;;;;;;;;;;5054629;28;20082;-44
2022/05/19 09:17:50;;;;;;;2.58;1.38;;;;;;;;;;5054375;28;20043;-44
2022/05/19 09:20:20;;;;;;;7.95;2.88;;;;;;;;;;5054155;28;20031;-44
2022/05/19 09:22:47;;;;;;;3.45;1.30;;;;;;;;;;5054392;28;20029;-44
2022/05/19 09:25:16;;;;;;;6.20;2.28;;;;;;;;;;5053990;28;20021;-44
2022/05/19 09:27:43;;;;;;;5.22;1.85;;;;;;;;;;5054057;28;20477;-44
2022/05/19 09:30:28;;;;;;;11.68;7.05;;;;;;;;;;5054348;28;20048;-44
2022/05/19 09:32:56;;;;;;;6.63;2.47;;;;;;;;;;5054537;28;20025;-43
2022/05/19 09:35:25;;;;;;;4.55;2.65;;;;;;;;;;5053085;28;20021;-44
2022/05/19 09:38:17;;;;;;;12.27;5.65;;;;;;;;;;5053843;28;20441;-44
2022/05/19 09:40:47;;;;;;;7.82;4.10;;;;;;;;;;5053875;28;20033;-44
2022/05/19 09:43:21;;;;;;;6.43;3.35;;;;;;;;;;5053852;28;20021;-44
2022/05/19 09:45:49;;;;;;;5.72;1.88;;;;;;;;;;5053785;28;20025;-44
2022/05/19 09:48:16;;;;;;;6.25;1.80;;;;;;;;;;5053925;28;20024;-44
2022/05/19 09:50:46;;;;;;;10.20;6.15;;;;;;;;;;5053759;28;20021;-44
2022/05/19 09:53:22;;;;;;;6.65;4.07;;;;;;;;;;5053709;28;20037;-45
2022/05/19 09:55:54;;;;;;;43.35;24.90;;;;;;;;;;5053731;28;20049;-44
2022/05/19 09:58:20;;;;;;;9.85;4.40;;;;;;;;;;5054133;28;20029;-44
2022/05/19 10:00:57;;;;;;;2.33;1.23;;;;;;;;;;5053596;28;20484;-44
2022/05/19 10:03:30;;;;;;;5.70;4.00;;;;;;;;;;5053333;28;20207;-44
2022/05/19 10:05:57;;;;;;;1.77;0.90;;;;;;;;;;5053293;28;20095;-45
2022/05/19 10:08:35;;;;;;;4.03;1.25;;;;;;;;;;5053359;28;20024;-44
2022/05/19 10:11:01;;;;;;;3.22;1.13;;;;;;;;;;5053457;28;20040;-48
2022/05/19 10:13:29;;;;;;;6.75;1.92;;;;;;;;;;5053389;28;20021;-48
2022/05/19 10:16:13;;;;;;;8.18;4.03;;;;;;;;;;5053206;28;20025;-48
2022/05/19 10:18:49;;;;;;;11.05;4.93;;;;;;;;;;5053600;28;20045;-49
2022/05/19 10:21:33;;;;;;;2.78;1.60;;;;;;;;;;5053456;28;20068;-49
2022/05/19 10:24:06;;;;;;;1.95;0.70;;;;;;;;;;5053318;28;20067;-50
2022/05/19 10:26:40;;;;;;;2.70;1.65;;;;;;;;;;5035443;28;20053;-48
2022/05/19 10:32:12;;;;;;;4.68;1.00;;;;;;;;;;5053321;28;20086;-47
2022/05/19 10:34:38;;;;;;;9.13;3.30;;;;;;;;;;5053323;28;20026;-47
2022/05/19 10:37:13;;;;;;;5.07;1.48;;;;;;;;;;5053026;28;20528;-48
2022/05/19 10:39:55;;;;;;;2.25;0.85;;;;;;;;;;5053504;28;20427;-48
2022/05/19 10:42:27;;;;;;;1.55;1.05;;;;;;;;;;5053201;28;20104;-48
2022/05/19 10:45:05;;;;;;;2.75;0.88;;;;;;;;;;5053130;28;20040;-49
2022/05/19 10:47:41;;;;;;;3.60;1.13;;;;;;;;;;5055923;28;20481;-49
2022/05/19 10:50:07;;;;;;;4.22;1.10;;;;;;;;;;5057069;28;20036;-48
2022/05/19 10:52:55;;;;;;;1.55;1.00;;;;;;;;;;5057232;28;20029;-48
2022/05/19 10:55:27;;;;;;;2.55;0.70;;;;;;;;;;5056894;28;20108;-49
2022/05/19 10:58:04;;;;;;;2.22;1.02;;;;;;;;;;5056928;28;20036;-50
2022/05/19 11:00:38;;;;;;;1.35;0.60;;;;;;;;;;5056897;28;20021;-48
2022/05/19 11:03:04;;;;;;;1.13;0.65;;;;;;;;;;5056976;28;20481;-48
2022/05/19 11:05:42;;;;;;;1.30;0.90;;;;;;;;;;5056860;28;20021;-48
2022/05/19 11:08:31;;;;;;;3.92;1.10;;;;;;;;;;5056682;28;20033;-47
2022/05/19 11:11:16;;;;;;;1.50;0.90;;;;;;;;;;5043892;28;20128;-48
2022/05/19 11:13:42;;;;;;;4.00;0.75;;;;;;;;;;5056735;28;20332;-48
2022/05/19 11:16:29;;;;;;;3.08;1.15;;;;;;;;;;5057026;28;20443;-48
2022/05/19 11:18:57;;;;;;;2.10;0.98;;;;;;;;;;5056434;28;20021;-47
2022/05/19 11:21:26;;;;;;;2.15;0.70;;;;;;;;;;5056522;28;20505;-46
2022/05/19 11:24:04;;;;;;;2.30;0.70;;;;;;;;;;5056756;28;20086;-47
2022/05/19 11:26:46;;;;;;;2.55;0.90;;;;;;;;;;5056573;28;20035;-49
2022/05/19 11:29:18;;;;;;;2.13;0.88;;;;;;;;;;5056667;28;20087;-47
2022/05/19 11:32:03;;;;;;;6.57;2.22;;;;;;;;;;5056722;28;20047;-47
2022/05/19 11:34:42;;;;;;;3.75;1.73;;;;;;;;;;5056160;28;20117;-47
2022/05/19 11:37:14;;;;;;;6.93;2.83;;;;;;;;;;5056150;28;20029;-45
2022/05/19 11:39:43;;;;;;;5.70;2.55;;;;;;;;;;5056113;28;20032;-48
2022/05/19 11:42:22;;;;;;;10.25;7.47;;;;;;;;;;5056560;28;20025;-44
2022/05/19 11:44:48;;;;;;;13.32;6.57;;;;;;;;;;5056170;28;20025;-49
2022/05/19 11:55:12;;;;;;;4.18;2.03;;;;;;;;;;5056107;28;20098;-46
2022/05/19 11:56:14;;;;;;;9.63;4.35;;;;;;;;;;4955699;29;20038;-48
2022/05/19 11:58:40;;;;;;;1.13;1.02;;;;;;;;;;4955021;28;20031;-47
2022/05/19 12:01:20;;;;;;;4.45;1.90;;;;;;;;;;4955845;29;20174;-47
2022/05/19 12:03:55;;;;;;;3.90;1.00;;;;;;;;;;4955798;29;20479;-51
2022/05/19 12:06:27;;;;;;;3.90;1.25;;;;;;;;;;4955455;28;20147;-47
2022/05/19 12:09:08;;;;;;;2.70;0.77;;;;;;;;;;4955694;29;20035;-50
2022/05/19 12:11:34;;;;;;;;;;;;;;;;;;4955932;29;20103;-51
2022/05/19 12:14:09;;;;;;;3.47;1.08;;;;;;;;;;4955481;29;19906;-45
2022/05/19 12:16:46;;;;;;;2.20;0.90;;;;;;;;;;4955354;29;20038;-45
2022/05/19 12:19:30;;;;;;;1.38;0.85;;;;;;;;;;4955419;28;20066;-46
2022/05/19 12:21:56;;;;;;;4.53;0.80;;;;;;;;;;4955425;29;20043;-47
2022/05/19 12:24:37;;;;;;;3.22;0.77;;;;;;;;;;4955317;29;20039;-63
2022/05/19 12:27:20;;;;;;;0.90;0.80;;;;;;;;;;5022833;28;20378;-45
2022/05/19 12:31:56;;;;;;;1.85;0.70;;;;;;;;;;5054328;28;20033;-61
2022/05/19 12:33:04;;;;;;;1.85;0.93;;;;;;;;;;5052987;28;20040;-48
2022/05/19 12:35:31;;;;;;;7.60;1.52;;;;;;;;;;5052499;28;20496;-46
2022/05/19 12:38:02;;;;;;;3.47;0.70;;;;;;;;;;5055174;28;20066;-47
2022/05/19 12:40:30;;;;;;;5.72;1.27;;;;;;;;;;5052182;28;20043;-46
2022/05/19 12:43:16;;;;;;;4.68;1.70;;;;;;;;;;5054431;28;20035;-44
2022/05/19 12:45:47;;;;;;;6.13;3.53;;;;;;;;;;5054083;28;20017;-45
2022/05/19 12:48:13;;;;;;;5.63;3.15;;;;;;;;;;5054764;28;20036;-48
2022/05/19 12:50:51;;;;;;;5.10;0.90;;;;;;;;;;5054372;28;20032;-45
2022/05/19 12:53:23;;;;;;;6.10;1.02;;;;;;;;;;5052937;28;20025;-44
2022/05/19 12:55:51;;;;;;;3.33;1.42;;;;;;;;;;5054673;28;20082;-47
2022/05/19 12:58:46;;;;;;;6.03;1.65;;;;;;;;;;5054786;28;20041;-45
2022/05/19 13:01:12;;;;;;;3.92;1.77;;;;;;;;;;5054648;28;20017;-45
2022/05/19 13:03:41;;;;;;;5.15;0.93;;;;;;;;;;5054694;28;20029;-45
2022/05/19 13:06:07;;;;;;;4.63;1.08;;;;;;;;;;5054402;28;20587;-46
2022/05/19 13:08:35;;;;;;;2.13;1.00;;;;;;;;;;5054426;28;20029;-45
2022/05/19 13:11:04;;;;;;;2.90;1.00;;;;;;;;;;5054168;28;20045;-46
2022/05/19 13:13:35;;;;;;;4.22;1.55;;;;;;;;;;5049846;28;20400;-46
2022/05/19 13:16:15;;;;;;;2.35;1.33;;;;;;;;;;5047454;28;20508;-48
2022/05/19 13:18:44;;;;;;;16.23;3.63;;;;;;;;;;5048996;28;20452;-45
2022/05/19 13:21:24;;;;;;;4.22;2.63;;;;;;;;;;5050673;28;20541;-48
2022/05/19 13:23:51;;;;;;;1.88;1.00;;;;;;;;;;5049348;28;20432;-46
2022/05/19 13:26:25;;;;;;;4.13;1.42;;;;;;;;;;5049962;28;20136;-46
2022/05/19 13:32:11;;;;;;;6.95;2.65;;;;;;;;;;5074322;28;20040;-46
2022/05/19 13:34:46;;;;;;;5.13;1.83;;;;;;;;;;5071289;28;20576;-48
2022/05/19 13:37:13;;;;;;;10.05;3.30;;;;;;;;;;5073808;28;20032;-47
2022/05/19 13:39:39;;;;;;;4.10;2.03;;;;;;;;;;5073915;28;20035;-45
2022/05/19 13:42:09;;;;;;;1.92;0.80;;;;;;;;;;5073570;28;20032;-44
2022/05/19 13:44:37;;;;;;;2.95;0.77;;;;;;;;;;5073792;28;20024;-47
2022/05/19 13:47:05;;;;;;;1.60;0.90;;;;;;;;;;5073698;28;20029;-44
2022/05/19 13:49:31;;;;;;;2.10;1.00;;;;;;;;;;5064800;28;20465;-46
2022/05/19 13:51:57;;;;;;;5.20;1.02;;;;;;;;;;5052774;28;20035;-47
2022/05/19 13:54:32;;;;;;;6.22;3.80;;;;;;;;;;5052711;28;20546;-45
2022/05/19 13:57:03;;;;;;;4.35;1.35;;;;;;;;;;5050740;28;20025;-45
2022/05/19 13:59:31;;;;;;;;;;;;;;;;;;5053231;28;20024;-46
2022/05/19 14:02:00;;;;;;;2.53;0.80;;;;;;;;;;5052987;28;20569;-46
2022/05/19 14:04:30;;;;;;;4.50;2.90;;;;;;;;;;5053443;28;20053;-44
2022/05/19 14:06:57;;;;;;;1.73;0.93;;;;;;;;;;5053544;28;20036;-46
2022/05/19 14:09:26;;;;;;;1.35;0.75;;;;;;;;;;5053365;28;20024;-47
2022/05/19 14:12:11;;;;;;;17.42;10.73;;;;;;;;;;5053178;28;20049;-42
2022/05/19 14:14:37;;;;;;;8.77;4.88;;;;;;;;;;5053298;28;20104;-43
2022/05/19 14:17:04;;;;;;;3.10;1.00;;;;;;;;;;5053346;28;20031;-45
2022/05/19 14:19:36;;;;;;;3.17;2.35;;;;;;;;;;5053601;28;20067;-44
2022/05/19 14:22:05;;;;;;;2.42;1.73;;;;;;;;;;5052165;28;20037;-44
2022/05/19 14:24:31;;;;;;;1.35;1.15;;;;;;;;;;5052822;28;20056;-46
2022/05/19 14:26:59;;;;;;;59.88;34.88;;;;;;;;;;5052357;28;20031;-46
2022/05/19 14:29:30;;;;;;;8.68;6.03;;;;;;;;;;5052762;28;20444;-46
2022/05/19 14:31:58;;;;;;;;;;;;;;;;;;5053197;28;20098;-47
2022/05/19 14:34:28;;;;;;;1.58;0.77;;;;;;;;;;5053307;28;19908;-46
2022/05/19 14:36:54;;;;;;;4.68;1.38;;;;;;;;;;5052798;28;20021;-53
2022/05/19 14:39:27;;;;;;;3.45;1.30;;;;;;;;;;5053156;28;20373;-49
2022/05/19 14:44:40;;;;;;;1.95;0.90;;;;;;;;;;5053157;28;20032;-48
2022/05/19 14:47:18;;;;;;;3.45;1.73;;;;;;;;;;5052025;28;20477;-46
2022/05/19 14:49:49;;;;;;;3.72;2.30;;;;;;;;;;5051545;28;20017;-45
2022/05/19 14:52:17;;;;;;;5.68;2.13;;;;;;;;;;5051552;28;20068;-47
2022/05/19 14:54:44;;;;;;;26.42;12.23;;;;;;;;;;5051724;28;20013;-45
2022/05/19 14:57:18;;;;;;;2.35;1.33;;;;;;;;;;5051186;28;20063;-47
2022/05/19 14:59:46;;;;;;;12.90;5.82;;;;;;;;;;5050701;28;20021;-46
2022/05/19 15:02:14;;;;;;;6.97;4.70;;;;;;;;;;5052606;28;20048;-48
2022/05/19 15:04:40;;;;;;;4.85;3.17;;;;;;;;;;5052501;28;20039;-50
2022/05/19 15:07:08;;;;;;;2.33;1.50;;;;;;;;;;5051696;28;20036;-45
2022/05/19 15:09:36;;;;;;;47.85;32.40;;;;;;;;;;5051741;28;20362;-46
2022/05/19 15:12:03;;;;;;;27.70;17.13;;;;;;;;;;5052060;28;20042;-47
2022/05/19 15:14:29;;;;;;;76.15;40.88;;;;;;;;;;5052191;28;20045;-46
2022/05/19 15:16:55;;;;;;;18.05;11.20;;;;;;;;;;5052168;28;20395;-46
2022/05/19 15:19:22;;;;;;;70.60;35.53;;;;;;;;;;5052267;28;20025;-45
2022/05/19 15:21:49;;;;;;;20.90;10.52;;;;;;;;;;5052016;28;20083;-46
2022/05/19 15:24:15;;;;;;;81.68;44.42;;;;;;;;;;5052136;28;20029;-45